Aransas Pass, Texas
Current Conditions -  °F | °C
As of 12:35 PM on Wednesday 26 Nov 2014 (Local Time) from KTFP Reporting Station
Clear Clear  
Wind Chill: 21°   Ceiling: Unl
Heat Index: 21°   Visibility: 10mi
Dew Point:   Wind: 15mph
Humidity: 29%   Direction: 200°SSW
Pressure: 30.24"   Gusts: 21mph
Location:  27.9°N, 97.15°W
Report Text: KTFP 261835Z AUTO 20013G18KT 10SM CLR 22/03 A3024 RMK AO2 T02150025
Loading
Personal Weather Stations






























Interactive Weather Map New forecast layout! Learn more

10-Day Weather Forecast

Advertisements
Track Severe Weather on mobile